createdAt,value
2019-05-01T00:02:47.918Z,8.90
2019-05-01T00:05:20.177Z,8.90
2019-05-01T00:07:51.405Z,8.90
2019-05-01T00:10:22.648Z,8.90
2019-05-01T00:12:53.237Z,8.80
2019-05-01T00:15:25.454Z,8.80
2019-05-01T00:17:56.190Z,8.80
2019-05-01T00:20:26.698Z,8.80
2019-05-01T00:22:57.478Z,8.80
2019-05-01T00:25:28.142Z,8.80
2019-05-01T00:27:59.080Z,8.70
2019-05-01T00:30:30.477Z,8.70
2019-05-01T00:33:01.302Z,8.70
2019-05-01T00:35:32.537Z,8.70
2019-05-01T00:38:03.112Z,8.60
2019-05-01T00:40:33.905Z,8.60
2019-05-01T00:43:04.600Z,8.60
2019-05-01T00:45:35.343Z,8.60
2019-05-01T00:48:05.934Z,8.70
2019-05-01T00:50:55.911Z,8.70
2019-05-01T00:53:26.620Z,8.70
2019-05-01T00:56:13.895Z,8.60
2019-05-01T00:58:48.910Z,8.60
2019-05-01T01:01:37.723Z,8.60
2019-05-01T01:04:09.151Z,8.60
2019-05-01T01:06:39.767Z,8.60
2019-05-01T01:09:10.439Z,8.60
2019-05-01T01:11:41.544Z,8.60
2019-05-01T01:14:12.231Z,8.60
2019-05-01T01:16:42.870Z,8.50
2019-05-01T01:19:13.470Z,8.40
2019-05-01T01:21:44.093Z,8.40
2019-05-01T01:24:15.040Z,8.40
2019-05-01T01:26:45.613Z,8.40
2019-05-01T01:29:16.252Z,8.40
2019-05-01T01:31:47.094Z,8.40
2019-05-01T01:34:17.830Z,8.50
2019-05-01T01:36:49.789Z,8.50
2019-05-01T01:39:20.364Z,8.50
2019-05-01T01:41:51.031Z,8.50
2019-05-01T01:44:25.721Z,8.40
2019-05-01T01:47:00.813Z,8.40
2019-05-01T01:49:31.704Z,8.40
2019-05-01T01:52:02.271Z,8.40
2019-05-01T01:54:33.074Z,8.50
2019-05-01T01:57:03.749Z,8.40
2019-05-01T01:59:34.594Z,8.40
2019-05-01T02:02:09.900Z,8.30
2019-05-01T02:04:50.942Z,8.30
2019-05-01T02:07:22.059Z,8.40
2019-05-01T02:09:52.595Z,8.40
2019-05-01T02:12:23.189Z,8.30
2019-05-01T02:14:53.740Z,8.30
2019-05-01T02:17:24.738Z,8.30
2019-05-01T02:19:55.484Z,8.30
2019-05-01T02:22:26.183Z,8.30
2019-05-01T02:24:57.031Z,8.30
2019-05-01T02:27:46.929Z,8.20
2019-05-01T02:30:19.141Z,8.30
2019-05-01T02:32:49.872Z,8.20
2019-05-01T02:35:20.812Z,8.30
2019-05-01T02:37:51.615Z,8.30
2019-05-01T02:40:45.037Z,8.30
2019-05-01T02:43:16.816Z,8.20
2019-05-01T02:45:48.579Z,8.20
2019-05-01T02:48:20.500Z,8.20
2019-05-01T02:50:51.044Z,8.20
2019-05-01T02:53:21.653Z,8.20
2019-05-01T02:55:56.712Z,8.20
2019-05-01T02:58:27.206Z,8.20
2019-05-01T03:00:57.840Z,8.20
2019-05-01T03:03:28.420Z,8.20
2019-05-01T03:05:59.201Z,8.20
2019-05-01T03:08:29.818Z,8.20
2019-05-01T03:11:00.432Z,8.20
2019-05-01T03:13:31.020Z,8.20
2019-05-01T03:16:01.706Z,8.20
2019-05-01T03:18:49.412Z,8.30
2019-05-01T03:21:37.802Z,8.20
2019-05-01T03:24:26.338Z,8.20
2019-05-01T03:27:16.528Z,8.20
2019-05-01T03:30:04.926Z,8.20
2019-05-01T03:32:53.394Z,8.20
2019-05-01T03:35:24.239Z,8.20
2019-05-01T03:37:54.940Z,8.20
2019-05-01T03:40:25.628Z,8.20
2019-05-01T03:42:56.174Z,8.10
2019-05-01T03:45:27.101Z,8.10
2019-05-01T03:47:57.912Z,8.10
2019-05-01T03:50:28.633Z,8.10
2019-05-01T03:52:59.453Z,8.10
2019-05-01T03:55:30.048Z,8.20
2019-05-01T03:58:00.625Z,8.20
2019-05-01T04:00:41.822Z,8.10
2019-05-01T04:03:26.251Z,8.10
2019-05-01T04:05:57.033Z,8.10
2019-05-01T04:08:27.734Z,8.10
2019-05-01T04:10:58.379Z,8.00
2019-05-01T04:13:29.100Z,8.00
2019-05-01T04:15:59.907Z,8.00
2019-05-01T04:18:30.884Z,8.00
2019-05-01T04:21:01.509Z,8.10
2019-05-01T04:23:32.175Z,8.10
2019-05-01T04:26:02.758Z,8.10
2019-05-01T04:28:44.004Z,8.10
2019-05-01T04:31:33.048Z,8.10
2019-05-01T04:34:07.009Z,8.10
2019-05-01T04:36:55.881Z,8.10
2019-05-01T04:39:29.073Z,8.20
2019-05-01T04:41:59.026Z,8.20
2019-05-01T04:44:29.325Z,8.20
2019-05-01T04:46:59.927Z,8.20
2019-05-01T04:49:30.640Z,8.30
2019-05-01T04:52:01.358Z,8.30
2019-05-01T04:54:32.562Z,8.40
2019-05-01T04:57:03.210Z,8.50
2019-05-01T04:59:33.923Z,8.60
2019-05-01T05:02:06.388Z,8.60
2019-05-01T05:04:37.174Z,8.70
2019-05-01T05:07:07.795Z,8.70
2019-05-01T05:09:40.008Z,8.80
2019-05-01T05:12:18.167Z,8.90
2019-05-01T05:14:50.335Z,9.00
2019-05-01T05:17:22.505Z,9.10
2019-05-01T05:19:54.190Z,9.20
2019-05-01T05:22:25.262Z,9.30
2019-05-01T05:24:55.890Z,9.40
2019-05-01T05:27:26.570Z,9.50
2019-05-01T05:29:57.768Z,9.60
2019-05-01T05:32:29.180Z,9.80
2019-05-01T05:35:00.235Z,9.90
2019-05-01T05:37:32.357Z,10.00
2019-05-01T05:40:02.972Z,10.10
2019-05-01T05:42:33.523Z,10.20
2019-05-01T05:45:06.380Z,10.30
2019-05-01T05:47:37.136Z,10.40
2019-05-01T05:50:09.013Z,10.50
2019-05-01T05:52:46.950Z,10.70
2019-05-01T05:55:22.488Z,10.80
2019-05-01T05:57:57.322Z,10.90
2019-05-01T06:00:45.746Z,10.90
2019-05-01T06:03:35.968Z,11.00
2019-05-01T06:06:24.514Z,11.10
2019-05-01T06:08:55.194Z,11.20
2019-05-01T06:11:37.808Z,11.30
2019-05-01T06:14:16.460Z,11.40
2019-05-01T06:16:52.258Z,11.50
2019-05-01T06:19:22.485Z,11.60
2019-05-01T06:22:10.307Z,11.70
2019-05-01T06:24:53.165Z,11.80
2019-05-01T06:27:23.979Z,11.80
2019-05-01T06:29:54.703Z,11.80
2019-05-01T06:32:28.761Z,11.80
2019-05-01T06:34:58.512Z,11.90
2019-05-01T06:38:02.299Z,12.00
2019-05-01T06:40:40.199Z,12.00
2019-05-01T06:43:35.003Z,12.00
2019-05-01T06:46:12.948Z,12.10
2019-05-01T06:48:48.910Z,12.10
2019-05-01T06:51:36.255Z,12.20
2019-05-01T06:54:11.392Z,12.30
2019-05-01T06:56:40.892Z,12.30
2019-05-01T06:59:13.104Z,12.40
2019-05-01T07:01:44.002Z,12.50
2019-05-01T07:04:14.785Z,12.50
2019-05-01T07:06:45.357Z,12.60
2019-05-01T07:09:27.469Z,12.60
2019-05-01T07:11:52.777Z,12.70
2019-05-01T07:14:20.797Z,12.70
2019-05-01T07:16:51.758Z,12.90
2019-05-01T07:19:23.938Z,13.00
2019-05-01T07:21:54.773Z,13.20
2019-05-01T07:24:28.037Z,13.40
2019-05-01T07:26:59.839Z,13.60
2019-05-01T07:29:32.975Z,13.50
2019-05-01T07:32:06.302Z,13.60
2019-05-01T07:34:36.524Z,13.60
2019-05-01T07:37:08.641Z,13.70
2019-05-01T07:39:39.543Z,13.80
2019-05-01T07:42:14.476Z,13.90
2019-05-01T07:44:46.775Z,13.90
2019-05-01T07:47:25.870Z,14.00
2019-05-01T07:49:56.108Z,14.10
2019-05-01T07:52:26.807Z,14.20
2019-05-01T07:54:57.959Z,14.30
2019-05-01T07:57:28.655Z,14.50
2019-05-01T08:00:03.691Z,14.80
2019-05-01T08:02:33.041Z,14.80
2019-05-01T08:05:10.084Z,14.80
2019-05-01T08:07:38.620Z,14.80
2019-05-01T08:10:09.970Z,15.00
2019-05-01T08:12:40.737Z,15.20
2019-05-01T08:15:11.308Z,15.20
2019-05-01T08:17:43.523Z,15.30
2019-05-01T08:20:18.665Z,15.30
2019-05-01T08:22:50.325Z,15.40
2019-05-01T08:25:20.992Z,15.30
2019-05-01T08:27:56.359Z,15.40
2019-05-01T08:30:42.554Z,15.60
2019-05-01T08:33:31.232Z,15.80
2019-05-01T08:36:02.298Z,15.80
2019-05-01T08:38:34.223Z,15.90
2019-05-01T08:41:05.406Z,16.00
2019-05-01T08:43:37.020Z,16.10
2019-05-01T08:46:11.826Z,16.10
2019-05-01T08:48:43.491Z,16.20
2019-05-01T08:51:14.328Z,16.10
2019-05-01T08:53:44.856Z,16.30
2019-05-01T08:56:34.843Z,16.50
2019-05-01T08:59:24.104Z,16.40
2019-05-01T09:02:13.465Z,16.50
2019-05-01T09:05:02.813Z,16.70
2019-05-01T09:07:55.961Z,16.80
2019-05-01T09:10:43.555Z,16.70
2019-05-01T09:13:32.057Z,16.70
2019-05-01T09:16:23.451Z,16.60
2019-05-01T09:19:10.586Z,16.70
2019-05-01T09:21:59.557Z,16.40
2019-05-01T09:24:49.306Z,16.20
2019-05-01T09:27:59.608Z,16.30
2019-05-01T09:30:50.040Z,16.20
2019-05-01T09:33:39.625Z,16.30
2019-05-01T09:36:28.968Z,16.00
2019-05-01T09:39:17.665Z,16.20
2019-05-01T09:42:06.917Z,16.30
2019-05-01T09:44:55.748Z,16.20
2019-05-01T09:47:44.671Z,16.40
2019-05-01T09:50:35.047Z,16.60
2019-05-01T09:53:34.334Z,16.40
2019-05-01T09:56:22.256Z,16.30
2019-05-01T09:59:12.633Z,15.90
2019-05-01T10:02:03.022Z,15.90
2019-05-01T10:04:51.940Z,16.40
2019-05-01T10:07:40.624Z,16.50
2019-05-01T10:10:30.500Z,17.00
2019-05-01T10:13:22.535Z,16.60
2019-05-01T10:16:09.659Z,17.20
2019-05-01T10:18:58.436Z,16.70
2019-05-01T10:21:47.223Z,16.60
2019-05-01T10:24:37.513Z,16.90
2019-05-01T10:27:30.917Z,17.20
2019-05-01T10:30:37.563Z,17.40
2019-05-01T10:33:32.730Z,17.30
2019-05-01T10:36:32.687Z,16.70
2019-05-01T10:39:07.964Z,17.70
2019-05-01T10:41:41.063Z,18.30
2019-05-01T10:44:11.047Z,18.10
2019-05-01T10:46:41.897Z,18.20
2019-05-01T10:49:12.500Z,18.30
2019-05-01T10:51:43.157Z,18.10
2019-05-01T10:54:13.788Z,18.30
2019-05-01T10:56:44.457Z,18.50
2019-05-01T10:59:15.282Z,18.10
2019-05-01T11:01:47.745Z,17.90
2019-05-01T11:04:18.445Z,17.50
2019-05-01T11:06:49.337Z,17.80
2019-05-01T11:09:20.107Z,18.10
2019-05-01T11:11:50.910Z,19.00
2019-05-01T11:14:21.558Z,18.60
2019-05-01T11:16:52.489Z,18.10
2019-05-01T11:19:23.133Z,18.20
2019-05-01T11:21:54.186Z,18.60
2019-05-01T11:24:24.887Z,17.80
2019-05-01T11:26:55.603Z,18.10
2019-05-01T11:29:26.320Z,18.60
2019-05-01T11:32:07.722Z,19.10
2019-05-01T11:34:40.130Z,18.20
2019-05-01T11:37:12.294Z,18.40
2019-05-01T11:39:47.092Z,18.60
2019-05-01T11:42:19.106Z,19.60
2019-05-01T11:44:49.872Z,18.90
2019-05-01T11:47:20.609Z,18.10
2019-05-01T11:49:51.540Z,18.90
2019-05-01T11:52:22.262Z,18.80
2019-05-01T11:54:52.826Z,17.90
2019-05-01T11:57:23.450Z,17.90
2019-05-01T11:59:54.378Z,18.10
2019-05-01T12:02:25.311Z,18.30
2019-05-01T12:04:56.012Z,18.30
2019-05-01T12:07:26.709Z,18.10
2019-05-01T12:09:57.526Z,18.20
2019-05-01T12:12:29.754Z,18.80
2019-05-01T12:15:00.420Z,18.30
2019-05-01T12:17:32.633Z,18.40
2019-05-01T12:20:03.572Z,18.10
2019-05-01T12:22:34.279Z,18.60
2019-05-01T12:25:05.458Z,18.40
2019-05-01T12:27:36.402Z,18.20
2019-05-01T12:30:08.895Z,19.00
2019-05-01T12:32:39.706Z,19.10
2019-05-01T12:35:10.867Z,19.50
2019-05-01T12:37:44.674Z,19.10
2019-05-01T12:40:16.164Z,20.40
2019-05-01T12:42:48.118Z,19.80
2019-05-01T12:45:18.884Z,19.60
2019-05-01T12:47:51.410Z,19.60
2019-05-01T12:50:22.384Z,18.60
2019-05-01T12:53:00.389Z,18.70
2019-05-01T12:55:32.645Z,20.20
2019-05-01T12:58:03.290Z,21.20
2019-05-01T13:00:48.210Z,20.80
2019-05-01T13:03:19.031Z,20.90
2019-05-01T13:05:49.877Z,20.40
2019-05-01T13:08:20.515Z,19.80
2019-05-01T13:10:51.312Z,19.50
2019-05-01T13:13:22.002Z,20.60
2019-05-01T13:15:52.759Z,19.30
2019-05-01T13:18:23.298Z,19.00
2019-05-01T13:20:54.062Z,18.60
2019-05-01T13:23:24.959Z,18.30
2019-05-01T13:25:57.176Z,19.30
2019-05-01T13:28:35.423Z,19.40
2019-05-01T13:31:13.641Z,20.20
2019-05-01T13:33:44.574Z,19.50
2019-05-01T13:36:16.123Z,19.90
2019-05-01T13:38:46.909Z,20.20
2019-05-01T13:41:18.047Z,19.30
2019-05-01T13:43:48.932Z,18.70
2019-05-01T13:46:19.554Z,18.90
2019-05-01T13:48:50.424Z,18.40
2019-05-01T13:51:21.038Z,18.50
2019-05-01T13:53:52.218Z,18.50
2019-05-01T13:56:22.927Z,19.30
2019-05-01T13:58:53.776Z,19.20
2019-05-01T14:01:25.210Z,18.30
2019-05-01T14:03:56.248Z,18.30
2019-05-01T14:06:27.018Z,18.20
2019-05-01T14:08:57.961Z,18.10
2019-05-01T14:11:30.906Z,18.40
2019-05-01T14:14:01.009Z,18.40
2019-05-01T14:16:31.412Z,18.20
2019-05-01T14:19:02.287Z,18.60
2019-05-01T14:21:37.706Z,18.80
2019-05-01T14:24:26.539Z,19.20
2019-05-01T14:26:57.493Z,18.40
2019-05-01T14:29:28.199Z,17.80
2019-05-01T14:31:59.059Z,18.10
2019-05-01T14:34:29.934Z,17.90
2019-05-01T14:37:01.414Z,17.90
2019-05-01T14:39:32.257Z,17.60
2019-05-01T14:42:03.498Z,18.00
2019-05-01T14:44:36.850Z,18.00
2019-05-01T14:47:10.440Z,18.20
2019-05-01T14:49:41.490Z,18.40
2019-05-01T14:52:12.678Z,17.90
2019-05-01T14:54:44.182Z,17.70
2019-05-01T14:57:15.969Z,17.70
2019-05-01T14:59:48.610Z,17.50
2019-05-01T15:02:20.336Z,17.40
2019-05-01T15:04:51.536Z,17.50
2019-05-01T15:07:23.717Z,17.50
2019-05-01T15:09:55.138Z,17.60
2019-05-01T15:12:26.712Z,17.30
2019-05-01T15:15:00.449Z,17.50
2019-05-01T15:17:38.936Z,17.40
2019-05-01T15:20:10.212Z,17.50
2019-05-01T15:22:41.395Z,17.50
2019-05-01T15:25:12.501Z,17.60
2019-05-01T15:27:43.816Z,17.80
2019-05-01T15:30:17.762Z,17.50
2019-05-01T15:32:48.971Z,17.40
2019-05-01T15:35:20.242Z,17.50
2019-05-01T15:37:56.915Z,17.60
2019-05-01T15:40:24.649Z,17.70
2019-05-01T15:42:58.243Z,17.80
2019-05-01T15:45:29.115Z,17.80
2019-05-01T15:47:59.697Z,17.90
2019-05-01T15:50:30.513Z,17.70
2019-05-01T15:53:01.358Z,17.60
2019-05-01T15:55:32.104Z,17.50
2019-05-01T15:58:02.890Z,17.50
2019-05-01T16:00:34.075Z,17.50
2019-05-01T16:03:04.632Z,17.60
2019-05-01T16:05:35.395Z,17.60
2019-05-01T16:08:09.732Z,17.50
2019-05-01T16:10:48.885Z,17.50
2019-05-01T16:13:19.413Z,17.30
2019-05-01T16:15:50.260Z,17.20
2019-05-01T16:18:20.813Z,17.00
2019-05-01T16:20:51.598Z,16.90
2019-05-01T16:23:22.671Z,16.80
2019-05-01T16:25:53.454Z,16.90
2019-05-01T16:28:24.101Z,16.80
2019-05-01T16:30:56.370Z,16.80
2019-05-01T16:33:27.692Z,16.90
2019-05-01T16:35:58.508Z,16.90
2019-05-01T16:38:49.993Z,16.90
2019-05-01T16:41:21.601Z,16.90
2019-05-01T16:43:52.379Z,16.90
2019-05-01T16:46:23.463Z,16.80
2019-05-01T16:48:56.073Z,16.80
2019-05-01T16:51:26.911Z,16.70
2019-05-01T16:53:57.684Z,16.60
2019-05-01T16:56:28.777Z,16.50
2019-05-01T16:58:59.679Z,16.40
2019-05-01T17:01:40.847Z,16.30
2019-05-01T17:04:29.408Z,16.10
2019-05-01T17:07:07.554Z,16.00
2019-05-01T17:09:43.174Z,15.90
2019-05-01T17:12:15.867Z,16.00
2019-05-01T17:14:46.823Z,16.00
2019-05-01T17:17:19.310Z,16.00
2019-05-01T17:19:50.216Z,16.00
2019-05-01T17:22:20.843Z,16.00
2019-05-01T17:24:51.673Z,15.90
2019-05-01T17:27:22.738Z,15.80
2019-05-01T17:29:53.712Z,15.80
2019-05-01T17:32:24.761Z,15.80
2019-05-01T17:34:55.496Z,15.70
2019-05-01T17:37:26.541Z,15.60
2019-05-01T17:39:57.698Z,15.60
2019-05-01T17:42:32.850Z,15.50
2019-05-01T17:45:01.597Z,15.40
2019-05-01T17:47:32.961Z,15.40
2019-05-01T17:50:03.814Z,15.30
2019-05-01T17:52:34.847Z,15.20
2019-05-01T17:55:07.051Z,15.10
2019-05-01T17:57:38.028Z,15.00
2019-05-01T18:00:13.162Z,15.00
2019-05-01T18:02:45.400Z,14.80
2019-05-01T18:05:17.777Z,14.70
2019-05-01T18:07:48.708Z,14.70
2019-05-01T18:10:19.560Z,14.60
2019-05-01T18:12:50.658Z,14.50
2019-05-01T18:15:21.495Z,14.40
2019-05-01T18:17:52.622Z,14.40
2019-05-01T18:20:24.482Z,14.30
2019-05-01T18:23:12.313Z,14.20
2019-05-01T18:25:43.017Z,14.20
2019-05-01T18:28:15.378Z,14.10
2019-05-01T18:30:46.357Z,14.00
2019-05-01T18:33:17.193Z,14.00
2019-05-01T18:35:50.601Z,13.90
2019-05-01T18:38:35.596Z,13.80
2019-05-01T18:41:11.004Z,13.70
2019-05-01T18:43:41.887Z,13.60
2019-05-01T18:46:14.590Z,13.60
2019-05-01T18:48:45.640Z,13.30
2019-05-01T18:51:17.336Z,13.00
2019-05-01T18:53:48.721Z,12.80
2019-05-01T18:56:23.265Z,12.70
2019-05-01T18:58:56.584Z,12.70
2019-05-01T19:01:28.947Z,12.70
2019-05-01T19:04:02.004Z,12.70
2019-05-01T19:06:41.097Z,12.70
2019-05-01T19:09:14.877Z,12.60
2019-05-01T19:11:41.604Z,12.60
2019-05-01T19:14:13.393Z,12.60
2019-05-01T19:16:45.671Z,12.60
2019-05-01T19:19:17.197Z,12.60
2019-05-01T19:21:48.471Z,12.50
2019-05-01T19:24:19.734Z,12.50
2019-05-01T19:26:50.926Z,12.50
2019-05-01T19:29:26.833Z,12.40
2019-05-01T19:31:56.591Z,12.40
2019-05-01T19:34:28.330Z,12.40
2019-05-01T19:36:59.633Z,12.40
2019-05-01T19:39:42.876Z,12.40
2019-05-01T19:42:04.338Z,12.40
2019-05-01T19:44:35.835Z,12.40
2019-05-01T19:47:08.158Z,12.40
2019-05-01T19:49:39.400Z,12.30
2019-05-01T19:52:10.337Z,12.30
2019-05-01T19:54:41.392Z,12.30
2019-05-01T19:57:12.350Z,12.30
2019-05-01T19:59:45.082Z,12.30
2019-05-01T20:02:22.011Z,12.20
2019-05-01T20:04:53.159Z,12.20
2019-05-01T20:07:24.247Z,12.20
2019-05-01T20:09:57.138Z,12.20
2019-05-01T20:12:29.945Z,12.10
2019-05-01T20:15:01.249Z,12.10
2019-05-01T20:17:34.004Z,12.10
2019-05-01T20:20:06.774Z,12.10
2019-05-01T20:22:38.553Z,12.00
2019-05-01T20:25:14.769Z,12.00
2019-05-01T20:27:52.158Z,12.00
2019-05-01T20:30:21.414Z,12.00
2019-05-01T20:32:53.091Z,11.90
2019-05-01T20:35:28.294Z,11.90
2019-05-01T20:37:57.332Z,11.90
2019-05-01T20:40:29.018Z,11.90
2019-05-01T20:43:05.923Z,11.80
2019-05-01T20:45:34.685Z,11.80
2019-05-01T20:48:05.887Z,11.80
2019-05-01T20:50:37.035Z,11.80
2019-05-01T20:53:08.617Z,11.70
2019-05-01T20:55:40.227Z,11.70
2019-05-01T20:58:18.249Z,11.70
2019-05-01T21:00:53.308Z,11.60
2019-05-01T21:03:23.338Z,11.60
2019-05-01T21:05:55.776Z,11.60
2019-05-01T21:08:39.110Z,11.60
2019-05-01T21:11:11.106Z,11.50
2019-05-01T21:13:41.286Z,11.50
2019-05-01T21:16:12.087Z,11.50
2019-05-01T21:18:42.927Z,11.50
2019-05-01T21:21:14.220Z,11.50
2019-05-01T21:23:48.147Z,11.50
2019-05-01T21:26:18.552Z,11.50
2019-05-01T21:28:49.300Z,11.40
2019-05-01T21:31:20.261Z,11.50
2019-05-01T21:33:50.951Z,11.50
2019-05-01T21:36:21.735Z,11.50
2019-05-01T21:38:52.677Z,11.50
2019-05-01T21:41:23.275Z,11.50
2019-05-01T21:43:54.073Z,11.50
2019-05-01T21:46:24.791Z,11.50
2019-05-01T21:48:55.465Z,11.50
2019-05-01T21:51:26.120Z,11.50
2019-05-01T21:53:57.989Z,11.50
2019-05-01T21:56:28.685Z,11.40
2019-05-01T21:59:06.691Z,11.40
2019-05-01T22:01:34.788Z,11.50
2019-05-01T22:04:04.375Z,11.50
2019-05-01T22:06:36.271Z,11.50
2019-05-01T22:09:10.567Z,11.50
2019-05-01T22:11:42.765Z,11.50
2019-05-01T22:14:15.069Z,11.50
2019-05-01T22:16:45.630Z,11.50
2019-05-01T22:19:17.791Z,11.50
2019-05-01T22:22:02.074Z,11.50
2019-05-01T22:24:41.175Z,11.40
2019-05-01T22:27:13.995Z,11.40
2019-05-01T22:29:49.102Z,11.40
2019-05-01T22:32:27.761Z,11.30
2019-05-01T22:35:03.743Z,11.30
2019-05-01T22:37:35.028Z,11.30
2019-05-01T22:40:14.526Z,11.30
2019-05-01T22:42:45.201Z,11.30
2019-05-01T22:45:24.983Z,11.30
2019-05-01T22:47:55.979Z,11.30
2019-05-01T22:50:26.767Z,11.30
2019-05-01T22:52:57.490Z,11.30
2019-05-01T22:55:28.063Z,11.20
2019-05-01T22:57:58.752Z,11.20
2019-05-01T23:00:30.949Z,11.20
2019-05-01T23:03:05.568Z,11.20
2019-05-01T23:05:35.429Z,11.10
2019-05-01T23:08:07.141Z,11.20
2019-05-01T23:10:41.807Z,11.20
2019-05-01T23:13:12.836Z,11.20
2019-05-01T23:15:44.725Z,11.20
2019-05-01T23:18:17.270Z,11.20
2019-05-01T23:20:47.745Z,11.20
2019-05-01T23:23:18.507Z,11.20
2019-05-01T23:25:49.305Z,11.10
2019-05-01T23:28:20.032Z,11.10
2019-05-01T23:30:50.741Z,11.10
2019-05-01T23:33:21.506Z,11.10
2019-05-01T23:35:52.279Z,11.10
2019-05-01T23:38:22.910Z,11.10
2019-05-01T23:40:53.680Z,11.10
2019-05-01T23:43:27.802Z,11.10
2019-05-01T23:45:56.680Z,11.00
2019-05-01T23:48:27.373Z,11.00
2019-05-01T23:50:57.884Z,11.00
2019-05-01T23:53:28.499Z,11.00
2019-05-01T23:56:00.082Z,11.00
2019-05-01T23:58:31.647Z,11.00
